createdAt,value
2018-04-30T00:00:58.012Z,0.00
2018-04-30T00:01:57.954Z,0.00
2018-04-30T00:03:51.248Z,0.00
2018-04-30T00:04:51.162Z,0.00
2018-04-30T00:06:44.440Z,0.00
2018-04-30T00:07:44.377Z,0.00
2018-04-30T00:09:37.673Z,0.00
2018-04-30T00:10:37.591Z,0.00
2018-04-30T00:12:30.869Z,0.00
2018-04-30T00:13:30.806Z,0.00
2018-04-30T00:15:24.105Z,0.00
2018-04-30T00:16:24.026Z,0.00
2018-04-30T00:18:17.441Z,0.00
2018-04-30T00:19:17.359Z,0.00
2018-04-30T00:21:10.740Z,0.00
2018-04-30T00:22:10.572Z,0.00
2018-04-30T00:24:04.717Z,0.00
2018-04-30T00:25:04.639Z,0.00
2018-04-30T00:26:57.904Z,0.00
2018-04-30T00:27:57.846Z,0.00
2018-04-30T00:29:51.242Z,0.00
2018-04-30T00:30:51.054Z,0.00
2018-04-30T00:32:44.435Z,0.00
2018-04-30T00:33:44.326Z,0.00
2018-04-30T00:35:37.670Z,0.00
2018-04-30T00:36:37.481Z,0.00
2018-04-30T00:38:30.777Z,0.00
2018-04-30T00:39:30.693Z,0.00
2018-04-30T00:41:23.974Z,0.00
2018-04-30T00:42:23.910Z,0.00
2018-04-30T00:44:17.201Z,0.00
2018-04-30T00:45:17.117Z,0.00
2018-04-30T00:47:10.383Z,0.00
2018-04-30T00:48:10.320Z,0.00
2018-04-30T00:50:03.612Z,0.00
2018-04-30T00:51:03.536Z,0.00
2018-04-30T00:52:56.802Z,0.00
2018-04-30T00:53:56.812Z,0.00
2018-04-30T00:55:50.033Z,0.00
2018-04-30T00:56:49.951Z,0.00
2018-04-30T00:58:43.232Z,0.00
2018-04-30T00:59:43.149Z,0.00
2018-04-30T01:01:36.530Z,0.00
2018-04-30T01:02:36.362Z,0.00
2018-04-30T01:04:29.649Z,0.00
2018-04-30T01:05:29.567Z,0.00
2018-04-30T01:07:22.831Z,0.00
2018-04-30T01:08:22.764Z,0.00
2018-04-30T01:10:16.161Z,0.00
2018-04-30T01:11:15.971Z,0.00
2018-04-30T01:13:09.415Z,0.00
2018-04-30T01:14:09.351Z,0.00
2018-04-30T01:16:02.640Z,0.00
2018-04-30T01:17:02.555Z,0.00
2018-04-30T01:18:55.846Z,0.00
2018-04-30T01:19:55.762Z,0.00
2018-04-30T01:21:49.032Z,0.00
2018-04-30T01:22:48.964Z,0.00
2018-04-30T01:24:42.361Z,0.00
2018-04-30T01:25:42.169Z,0.00
2018-04-30T01:27:35.440Z,0.00
2018-04-30T01:28:35.375Z,0.00
2018-04-30T01:30:28.667Z,0.00
2018-04-30T01:31:28.580Z,0.00
2018-04-30T01:33:21.973Z,0.00
2018-04-30T01:34:21.784Z,0.00
2018-04-30T01:36:15.077Z,0.00
2018-04-30T01:37:14.989Z,0.00
2018-04-30T01:39:08.283Z,0.00
2018-04-30T01:40:08.198Z,0.00
2018-04-30T01:42:01.470Z,0.00
2018-04-30T01:43:01.401Z,0.00
2018-04-30T01:44:54.799Z,0.00
2018-04-30T01:45:54.607Z,0.00
2018-04-30T01:47:47.869Z,0.00
2018-04-30T01:48:47.803Z,0.00
2018-04-30T01:50:41.200Z,0.00
2018-04-30T01:51:41.011Z,0.00
2018-04-30T01:53:34.280Z,0.00
2018-04-30T01:54:34.214Z,0.00
2018-04-30T01:56:27.504Z,0.00
2018-04-30T01:57:27.418Z,0.00
2018-04-30T01:59:20.708Z,0.00
2018-04-30T02:00:20.624Z,0.00
2018-04-30T02:02:13.894Z,0.00
2018-04-30T02:03:13.832Z,0.00
2018-04-30T02:05:07.118Z,0.00
2018-04-30T02:06:07.035Z,0.00
2018-04-30T02:08:00.302Z,0.00
2018-04-30T02:09:00.236Z,0.00
2018-04-30T02:10:53.527Z,0.00
2018-04-30T02:11:53.443Z,0.00
2018-04-30T02:13:46.716Z,0.00
2018-04-30T02:14:46.650Z,0.00
2018-04-30T02:16:39.926Z,0.00
2018-04-30T02:17:39.842Z,0.00
2018-04-30T02:19:33.132Z,0.00
2018-04-30T02:20:33.048Z,0.00
2018-04-30T02:22:26.317Z,0.00
2018-04-30T02:23:26.253Z,0.00
2018-04-30T02:25:19.651Z,0.00
2018-04-30T02:26:19.458Z,0.00
2018-04-30T02:28:12.837Z,0.00
2018-04-30T02:29:12.663Z,0.00
2018-04-30T02:31:05.965Z,0.00
2018-04-30T02:32:05.869Z,0.00
2018-04-30T02:33:59.140Z,0.00
2018-04-30T02:34:59.072Z,0.00
2018-04-30T02:36:52.373Z,0.00
2018-04-30T02:37:52.277Z,0.00
2018-04-30T02:39:45.675Z,0.00
2018-04-30T02:40:45.483Z,0.00
2018-04-30T02:42:38.756Z,0.00
2018-04-30T02:43:38.689Z,0.00
2018-04-30T02:45:31.978Z,0.00
2018-04-30T02:46:31.893Z,0.00
2018-04-30T02:48:25.164Z,0.00
2018-04-30T02:49:25.103Z,0.00
2018-04-30T02:51:18.493Z,0.00
2018-04-30T02:52:18.304Z,0.00
2018-04-30T02:54:11.573Z,0.00
2018-04-30T02:55:11.516Z,0.00
2018-04-30T02:57:04.789Z,0.00
2018-04-30T02:58:04.703Z,0.00
2018-04-30T02:59:58.100Z,0.00
2018-04-30T03:00:57.908Z,0.00
2018-04-30T03:02:51.183Z,0.00
2018-04-30T03:03:51.113Z,0.00
2018-04-30T03:05:44.403Z,0.00
2018-04-30T03:06:44.324Z,0.00
2018-04-30T03:08:37.591Z,0.00
2018-04-30T03:09:37.567Z,0.00
2018-04-30T03:11:30.815Z,0.00
2018-04-30T03:12:30.730Z,0.00
2018-04-30T03:14:24.002Z,0.00
2018-04-30T03:15:23.935Z,0.00
2018-04-30T03:17:17.217Z,0.00
2018-04-30T03:18:17.132Z,0.00
2018-04-30T03:20:10.422Z,0.00
2018-04-30T03:21:10.339Z,0.00
2018-04-30T03:23:03.614Z,0.00
2018-04-30T03:24:03.544Z,0.00
2018-04-30T03:25:56.834Z,0.00
2018-04-30T03:26:56.751Z,0.00
2018-04-30T03:28:50.021Z,0.00
2018-04-30T03:29:49.957Z,4.00
2018-04-30T03:31:43.248Z,4.00
2018-04-30T03:32:43.164Z,0.00
2018-04-30T03:34:36.436Z,4.00
2018-04-30T03:35:36.379Z,4.00
2018-04-30T03:37:29.651Z,4.00
2018-04-30T03:38:29.565Z,4.00
2018-04-30T03:40:22.963Z,4.00
2018-04-30T03:41:22.777Z,8.00
2018-04-30T03:43:16.043Z,12.00
2018-04-30T03:44:15.978Z,12.00
2018-04-30T03:46:09.432Z,16.00
2018-04-30T03:47:09.345Z,16.00
2018-04-30T03:49:02.616Z,20.00
2018-04-30T03:50:02.551Z,24.00
2018-04-30T03:51:55.847Z,28.00
2018-04-30T03:52:55.806Z,32.00
2018-04-30T03:54:49.029Z,32.00
2018-04-30T03:55:48.964Z,32.00
2018-04-30T03:57:42.359Z,32.00
2018-04-30T03:58:42.160Z,36.00
2018-04-30T04:00:35.555Z,44.00
2018-04-30T04:01:35.366Z,52.00
2018-04-30T04:03:28.637Z,52.00
2018-04-30T04:04:28.570Z,60.00
2018-04-30T04:06:21.862Z,64.00
2018-04-30T04:07:21.779Z,72.00
2018-04-30T04:09:15.049Z,64.00
2018-04-30T04:10:14.983Z,72.00
2018-04-30T04:12:08.275Z,84.00
2018-04-30T04:13:08.188Z,84.00
2018-04-30T04:15:01.458Z,96.00
2018-04-30T04:16:01.392Z,104.00
2018-04-30T04:17:54.681Z,116.00
2018-04-30T04:18:54.595Z,120.00
2018-04-30T04:20:47.993Z,132.00
2018-04-30T04:21:47.800Z,144.00
2018-04-30T04:23:41.071Z,176.00
2018-04-30T04:24:41.006Z,192.00
2018-04-30T04:26:34.296Z,220.00
2018-04-30T04:27:34.212Z,240.00
2018-04-30T04:29:27.485Z,288.00
2018-04-30T04:30:27.417Z,292.00
2018-04-30T04:32:20.816Z,336.00
2018-04-30T04:33:20.624Z,356.00
2018-04-30T04:35:14.001Z,336.00
2018-04-30T04:36:13.827Z,316.00
2018-04-30T04:38:07.117Z,356.00
2018-04-30T04:39:07.033Z,360.00
2018-04-30T04:41:00.323Z,552.00
2018-04-30T04:42:00.237Z,672.00
2018-04-30T04:43:53.556Z,520.00
2018-04-30T04:44:53.444Z,532.00
2018-04-30T04:46:46.839Z,740.00
2018-04-30T04:47:46.647Z,708.00
2018-04-30T04:49:40.026Z,476.00
2018-04-30T04:50:39.852Z,632.00
2018-04-30T04:52:33.143Z,656.00
2018-04-30T04:53:33.058Z,676.00
2018-04-30T04:55:26.348Z,612.00
2018-04-30T04:56:26.265Z,616.00
2018-04-30T04:58:19.640Z,796.00
2018-04-30T04:59:19.468Z,660.00
2018-04-30T05:01:12.758Z,832.00
2018-04-30T05:02:12.674Z,792.00
2018-04-30T05:04:06.017Z,840.00
2018-04-30T05:05:05.878Z,824.00
2018-04-30T05:06:59.163Z,784.00
2018-04-30T05:07:59.079Z,764.00
2018-04-30T05:09:52.349Z,800.00
2018-04-30T05:10:52.287Z,800.00
2018-04-30T05:12:45.573Z,832.00
2018-04-30T05:13:45.490Z,668.00
2018-04-30T05:15:38.869Z,772.00
2018-04-30T05:16:38.696Z,820.00
2018-04-30T05:18:31.987Z,860.00
2018-04-30T05:19:31.899Z,864.00
2018-04-30T05:21:25.193Z,820.00
2018-04-30T05:22:25.109Z,848.00
2018-04-30T05:24:18.379Z,1012.00
2018-04-30T05:25:18.314Z,908.00
2018-04-30T05:27:11.596Z,1028.00
2018-04-30T05:28:11.521Z,980.00
2018-04-30T05:30:04.790Z,944.00
2018-04-30T05:31:04.744Z,1000.00
2018-04-30T05:32:58.015Z,848.00
2018-04-30T05:33:58.010Z,748.00
2018-04-30T05:35:51.205Z,760.00
2018-04-30T05:36:51.134Z,720.00
2018-04-30T05:38:44.425Z,928.00
2018-04-30T05:39:44.340Z,1172.00
2018-04-30T05:41:37.639Z,1248.00
2018-04-30T05:42:37.551Z,1168.00
2018-04-30T05:44:30.820Z,1396.00
2018-04-30T05:45:30.762Z,1404.00
2018-04-30T05:47:24.038Z,1560.00
2018-04-30T05:48:23.954Z,1164.00
2018-04-30T05:50:17.227Z,1128.00
2018-04-30T05:51:17.159Z,1128.00
2018-04-30T05:53:10.451Z,1060.00
2018-04-30T05:54:10.366Z,1052.00
2018-04-30T05:56:03.744Z,924.00
2018-04-30T05:57:03.575Z,784.00
2018-04-30T05:58:56.862Z,756.00
2018-04-30T05:59:56.778Z,772.00
2018-04-30T06:01:50.073Z,696.00
2018-04-30T06:02:49.988Z,784.00
2018-04-30T06:04:43.416Z,668.00
2018-04-30T06:05:43.351Z,720.00
2018-04-30T06:07:36.748Z,872.00
2018-04-30T06:08:36.552Z,972.00
2018-04-30T06:10:29.935Z,932.00
2018-04-30T06:11:29.758Z,940.00
2018-04-30T06:13:23.156Z,952.00
2018-04-30T06:14:22.966Z,992.00
2018-04-30T06:16:16.239Z,1080.00
2018-04-30T06:17:16.173Z,1020.00
2018-04-30T06:19:09.575Z,852.00
2018-04-30T06:20:09.402Z,824.00
2018-04-30T06:22:02.686Z,692.00
2018-04-30T06:23:02.598Z,660.00
2018-04-30T06:24:55.870Z,824.00
2018-04-30T06:25:55.805Z,724.00
2018-04-30T06:27:49.089Z,668.00
2018-04-30T06:28:49.003Z,764.00
2018-04-30T06:30:42.266Z,752.00
2018-04-30T06:31:42.202Z,776.00
2018-04-30T06:33:35.485Z,792.00
2018-04-30T06:34:35.400Z,1296.00
2018-04-30T06:36:28.664Z,796.00
2018-04-30T06:37:28.600Z,984.00
2018-04-30T06:39:21.879Z,900.00
2018-04-30T06:40:21.796Z,1100.00
2018-04-30T06:42:15.699Z,1048.00
2018-04-30T06:43:14.998Z,896.00
2018-04-30T06:45:08.352Z,1064.00
2018-04-30T06:46:08.191Z,1040.00
2018-04-30T06:48:01.592Z,1112.00
2018-04-30T06:49:01.391Z,788.00
2018-04-30T06:50:54.650Z,976.00
2018-04-30T06:51:54.589Z,836.00
2018-04-30T06:53:47.870Z,736.00
2018-04-30T06:54:47.787Z,888.00
2018-04-30T06:56:41.051Z,764.00
2018-04-30T06:57:40.979Z,976.00
2018-04-30T06:59:34.893Z,764.00
2018-04-30T07:00:34.217Z,700.00
2018-04-30T07:02:27.617Z,800.00
2018-04-30T07:03:27.419Z,736.00
2018-04-30T07:05:20.681Z,636.00
2018-04-30T07:06:20.619Z,560.00
2018-04-30T07:08:13.899Z,1540.00
2018-04-30T07:09:13.937Z,1700.00
2018-04-30T07:11:07.194Z,2324.00
2018-04-30T07:12:07.015Z,2940.00
2018-04-30T07:14:00.296Z,4016.00
2018-04-30T07:15:00.212Z,3744.00
2018-04-30T07:16:53.475Z,4548.00
2018-04-30T07:17:53.413Z,4628.00
2018-04-30T07:19:46.813Z,3972.00
2018-04-30T07:20:46.611Z,3520.00
2018-04-30T07:22:40.006Z,3736.00
2018-04-30T07:23:39.810Z,3696.00
2018-04-30T07:25:33.188Z,4208.00
2018-04-30T07:26:33.010Z,4824.00
2018-04-30T07:28:26.291Z,5676.00
2018-04-30T07:29:26.209Z,5572.00
2018-04-30T07:31:19.473Z,5524.00
2018-04-30T07:32:19.409Z,5744.00
2018-04-30T07:34:12.809Z,5304.00
2018-04-30T07:35:12.609Z,5120.00
2018-04-30T07:37:05.993Z,5760.00
2018-04-30T07:38:05.813Z,4612.00
2018-04-30T07:39:59.107Z,2956.00
2018-04-30T07:40:59.025Z,2044.00
2018-04-30T07:42:52.300Z,1424.00
2018-04-30T07:43:52.239Z,1848.00
2018-04-30T07:45:45.523Z,2468.00
2018-04-30T07:46:45.437Z,2280.00
2018-04-30T07:48:38.725Z,2056.00
2018-04-30T07:49:38.640Z,2380.00
2018-04-30T07:51:31.903Z,2660.00
2018-04-30T07:52:31.845Z,2844.00
2018-04-30T07:54:25.124Z,2884.00
2018-04-30T07:55:25.042Z,2496.00
2018-04-30T07:57:18.390Z,2340.00
2018-04-30T07:58:18.243Z,2280.00
2018-04-30T08:00:11.640Z,2508.00
2018-04-30T08:01:11.443Z,2292.00
2018-04-30T08:03:04.867Z,2116.00
2018-04-30T08:04:04.646Z,1716.00
2018-04-30T08:05:57.938Z,1392.00
2018-04-30T08:06:57.853Z,1288.00
2018-04-30T08:08:51.143Z,1244.00
2018-04-30T08:09:51.053Z,1340.00
2018-04-30T08:11:44.322Z,1276.00
2018-04-30T08:12:44.253Z,1580.00
2018-04-30T08:14:37.651Z,1660.00
2018-04-30T08:15:37.453Z,1420.00
2018-04-30T08:17:30.719Z,1192.00
2018-04-30T08:18:30.658Z,1296.00
2018-04-30T08:20:23.937Z,1056.00
2018-04-30T08:21:23.855Z,1052.00
2018-04-30T08:23:17.135Z,980.00
2018-04-30T08:24:17.053Z,1308.00
2018-04-30T08:26:10.319Z,2096.00
2018-04-30T08:27:10.252Z,1668.00
2018-04-30T08:29:03.545Z,1076.00
2018-04-30T08:30:03.466Z,996.00
2018-04-30T08:31:56.730Z,976.00
2018-04-30T08:32:56.661Z,972.00
2018-04-30T08:34:50.058Z,1396.00
2018-04-30T08:35:49.859Z,1872.00
2018-04-30T08:37:43.240Z,2244.00
2018-04-30T08:38:43.057Z,2600.00
2018-04-30T08:40:36.340Z,2872.00
2018-04-30T08:41:36.255Z,2764.00
2018-04-30T08:43:29.535Z,2416.00
2018-04-30T08:44:29.450Z,2208.00
2018-04-30T08:46:22.725Z,2664.00
2018-04-30T08:47:22.659Z,2500.00
2018-04-30T08:49:15.939Z,1532.00
2018-04-30T08:50:15.855Z,1176.00
2018-04-30T08:52:09.310Z,956.00
2018-04-30T08:53:09.052Z,1844.00
2018-04-30T08:55:02.333Z,2460.00
2018-04-30T08:56:02.248Z,2484.00
2018-04-30T08:57:55.509Z,4088.00
2018-04-30T08:58:55.445Z,4584.00
2018-04-30T09:00:48.734Z,4444.00
2018-04-30T09:01:48.640Z,4308.00
2018-04-30T09:03:42.038Z,4688.00
2018-04-30T09:04:41.834Z,4736.00
2018-04-30T09:06:35.105Z,4516.00
2018-04-30T09:07:35.039Z,4500.00
2018-04-30T09:09:28.319Z,5100.00
2018-04-30T09:10:28.230Z,5576.00
2018-04-30T09:12:21.546Z,5940.00
2018-04-30T09:13:21.475Z,5948.00
2018-04-30T09:15:14.873Z,5564.00
2018-04-30T09:16:14.670Z,6168.00
2018-04-30T09:18:07.933Z,6056.00
2018-04-30T09:19:07.864Z,5832.00
2018-04-30T09:21:01.263Z,5280.00
2018-04-30T09:22:01.062Z,5308.00
2018-04-30T09:23:54.460Z,5584.00
2018-04-30T09:24:54.255Z,5220.00
2018-04-30T09:26:47.632Z,4696.00
2018-04-30T09:27:47.448Z,4712.00
2018-04-30T09:29:40.747Z,4716.00
2018-04-30T09:30:40.662Z,4708.00
2018-04-30T09:32:33.922Z,5296.00
2018-04-30T09:33:33.856Z,5740.00
2018-04-30T09:35:27.253Z,5864.00
2018-04-30T09:36:27.050Z,5552.00
2018-04-30T09:38:20.430Z,4820.00
2018-04-30T09:39:20.244Z,4240.00
2018-04-30T09:41:13.524Z,3636.00
2018-04-30T09:42:13.439Z,3432.00
2018-04-30T09:44:06.721Z,2964.00
2018-04-30T09:45:06.634Z,2760.00
2018-04-30T09:46:59.894Z,3012.00
2018-04-30T09:47:59.829Z,3164.00
2018-04-30T09:49:53.107Z,4844.00
2018-04-30T09:50:53.024Z,5316.00
2018-04-30T09:52:46.287Z,4936.00
2018-04-30T09:53:46.313Z,4812.00
2018-04-30T09:55:39.616Z,4548.00
2018-04-30T09:56:39.413Z,4440.00
2018-04-30T09:58:32.676Z,4184.00
2018-04-30T09:59:32.609Z,4100.00
2018-04-30T10:01:25.891Z,4372.00
2018-04-30T10:02:25.805Z,4588.00
2018-04-30T10:04:19.087Z,4772.00
2018-04-30T10:05:19.001Z,4776.00
2018-04-30T10:07:12.330Z,4608.00
2018-04-30T10:08:12.199Z,4492.00
2018-04-30T10:10:05.480Z,4624.00
2018-04-30T10:11:05.396Z,4620.00
2018-04-30T10:12:58.656Z,4160.00
2018-04-30T10:13:58.595Z,3996.00
2018-04-30T10:15:51.873Z,3936.00
2018-04-30T10:16:51.789Z,3692.00
2018-04-30T10:18:45.051Z,2984.00
2018-04-30T10:19:44.984Z,2868.00
2018-04-30T10:21:38.267Z,2984.00
2018-04-30T10:22:38.182Z,3128.00
2018-04-30T10:24:31.464Z,3304.00
2018-04-30T10:25:31.379Z,3524.00
2018-04-30T10:27:24.643Z,4104.00
2018-04-30T10:28:24.701Z,4436.00
2018-04-30T10:30:17.860Z,4820.00
2018-04-30T10:31:17.775Z,4980.00
2018-04-30T10:33:11.037Z,5656.00
2018-04-30T10:34:10.972Z,6204.00
2018-04-30T10:36:04.254Z,7140.00
2018-04-30T10:37:04.168Z,7452.00
2018-04-30T10:38:57.431Z,7792.00
2018-04-30T10:39:57.366Z,7944.00
2018-04-30T10:41:50.650Z,8244.00
2018-04-30T10:42:50.565Z,8584.00
2018-04-30T10:44:43.897Z,8940.00
2018-04-30T10:45:43.813Z,9200.00
2018-04-30T10:47:37.026Z,9312.00
2018-04-30T10:48:36.962Z,9208.00
2018-04-30T10:50:30.363Z,8944.00
2018-04-30T10:51:30.185Z,8840.00
2018-04-30T10:53:23.430Z,8772.00
2018-04-30T10:54:23.365Z,8768.00
2018-04-30T10:56:16.652Z,8764.00
2018-04-30T10:57:16.564Z,8664.00
2018-04-30T10:59:09.830Z,8496.00
2018-04-30T11:00:09.765Z,8380.00
2018-04-30T11:02:03.050Z,8028.00
2018-04-30T11:03:02.967Z,7816.00
2018-04-30T11:04:56.314Z,7572.00
2018-04-30T11:05:56.168Z,7456.00
2018-04-30T11:07:49.434Z,7572.00
2018-04-30T11:08:49.371Z,7876.00
2018-04-30T11:10:42.680Z,10004.00
2018-04-30T11:11:42.591Z,10280.00
2018-04-30T11:13:35.898Z,11776.00
2018-04-30T11:14:35.795Z,11472.00
2018-04-30T11:16:29.191Z,13480.00
2018-04-30T11:17:28.994Z,12796.00
2018-04-30T11:19:22.268Z,11620.00
2018-04-30T11:20:22.204Z,13076.00
2018-04-30T11:22:15.604Z,13200.00
2018-04-30T11:23:15.403Z,12432.00
2018-04-30T11:25:08.688Z,11472.00
2018-04-30T11:26:08.611Z,9984.00
2018-04-30T11:28:01.953Z,8832.00
2018-04-30T11:29:01.885Z,8076.00
2018-04-30T11:30:55.124Z,9180.00
2018-04-30T11:31:55.044Z,8592.00
2018-04-30T11:33:48.324Z,9028.00
2018-04-30T11:34:48.259Z,9184.00
2018-04-30T11:36:41.652Z,7496.00
2018-04-30T11:37:41.512Z,9612.00
2018-04-30T11:39:34.860Z,5060.00
2018-04-30T11:40:34.694Z,5176.00
2018-04-30T11:42:27.991Z,5596.00
2018-04-30T11:43:27.925Z,5344.00
2018-04-30T11:45:21.315Z,5440.00
2018-04-30T11:46:21.131Z,5440.00
2018-04-30T11:48:14.411Z,4860.00
2018-04-30T11:49:14.345Z,3676.00
2018-04-30T11:51:07.747Z,1880.00
2018-04-30T11:52:07.562Z,2392.00
2018-04-30T11:54:00.841Z,2232.00
2018-04-30T11:55:00.780Z,2336.00
2018-04-30T11:56:53.701Z,3404.00
2018-04-30T11:57:53.543Z,4456.00
2018-04-30T11:59:46.783Z,7092.00
2018-04-30T12:00:46.723Z,7784.00
2018-04-30T12:02:40.017Z,8344.00
2018-04-30T12:03:39.937Z,8144.00
2018-04-30T12:05:33.339Z,7868.00
2018-04-30T12:06:33.147Z,7684.00
2018-04-30T12:08:26.428Z,7428.00
2018-04-30T12:09:26.366Z,7736.00
2018-04-30T12:11:19.684Z,6900.00
2018-04-30T12:12:19.588Z,6212.00
2018-04-30T12:14:12.863Z,6020.00
2018-04-30T12:15:12.800Z,5644.00
2018-04-30T12:17:06.202Z,5296.00
2018-04-30T12:18:06.010Z,4948.00
2018-04-30T12:19:59.370Z,4368.00
2018-04-30T12:20:59.279Z,4268.00
2018-04-30T12:22:52.569Z,5588.00
2018-04-30T12:23:52.495Z,6152.00
2018-04-30T12:25:45.885Z,4524.00
2018-04-30T12:26:45.700Z,4272.00
2018-04-30T12:28:38.985Z,5716.00
2018-04-30T12:29:38.996Z,5960.00
2018-04-30T12:31:32.317Z,7252.00
2018-04-30T12:32:32.132Z,6980.00
2018-04-30T12:34:25.408Z,7284.00
2018-04-30T12:35:25.345Z,7808.00
2018-04-30T12:37:18.637Z,8816.00
2018-04-30T12:38:18.553Z,8584.00
2018-04-30T12:40:11.873Z,9052.00
2018-04-30T12:41:11.790Z,8904.00
2018-04-30T12:43:05.190Z,8704.00
2018-04-30T12:44:05.004Z,8876.00
2018-04-30T12:45:58.309Z,8844.00
2018-04-30T12:46:58.220Z,9428.00
2018-04-30T12:48:51.498Z,8848.00
2018-04-30T12:49:51.488Z,8948.00
2018-04-30T12:51:44.739Z,9444.00
2018-04-30T12:52:44.654Z,10512.00
2018-04-30T12:54:37.934Z,9812.00
2018-04-30T12:55:37.870Z,8508.00
2018-04-30T12:57:31.163Z,6972.00
2018-04-30T12:58:31.089Z,7340.00
2018-04-30T13:00:24.381Z,8128.00
2018-04-30T13:01:24.299Z,8412.00
2018-04-30T13:03:17.599Z,8840.00
2018-04-30T13:04:17.516Z,8924.00
2018-04-30T13:06:10.829Z,8812.00
2018-04-30T13:07:10.748Z,8928.00
2018-04-30T13:09:04.191Z,9232.00
2018-04-30T13:10:03.967Z,8576.00
2018-04-30T13:11:57.369Z,7416.00
2018-04-30T13:12:57.263Z,6840.00
2018-04-30T13:14:50.543Z,5712.00
2018-04-30T13:15:50.484Z,5956.00
2018-04-30T13:17:43.890Z,4604.00
2018-04-30T13:18:43.695Z,3624.00
2018-04-30T13:20:36.999Z,2732.00
2018-04-30T13:21:36.914Z,2732.00
2018-04-30T13:23:30.298Z,3260.00
2018-04-30T13:24:30.137Z,3756.00
2018-04-30T13:26:23.538Z,4820.00
2018-04-30T13:27:23.361Z,4260.00
2018-04-30T13:29:16.641Z,2592.00
2018-04-30T13:30:16.624Z,2052.00
2018-04-30T13:32:10.000Z,2340.00
2018-04-30T13:33:09.812Z,2988.00
2018-04-30T13:35:03.180Z,3912.00
2018-04-30T13:36:03.018Z,4388.00
2018-04-30T13:37:56.311Z,3836.00
2018-04-30T13:38:56.231Z,3600.00
2018-04-30T13:40:49.657Z,4096.00
2018-04-30T13:41:49.510Z,4772.00
2018-04-30T13:43:42.787Z,5304.00
2018-04-30T13:44:42.663Z,4472.00
2018-04-30T13:46:35.977Z,3484.00
2018-04-30T13:47:35.883Z,3536.00
2018-04-30T13:49:29.164Z,3568.00
2018-04-30T13:50:29.099Z,3148.00
2018-04-30T13:52:22.499Z,1800.00
2018-04-30T13:53:22.317Z,1428.00
2018-04-30T13:55:15.597Z,1436.00
2018-04-30T13:56:15.532Z,1560.00
2018-04-30T13:58:08.932Z,1612.00
2018-04-30T13:59:08.738Z,1720.00
2018-04-30T14:01:02.023Z,2672.00
2018-04-30T14:02:01.943Z,3140.00
2018-04-30T14:03:55.210Z,3660.00
2018-04-30T14:04:55.147Z,3048.00
2018-04-30T14:06:48.442Z,2740.00
2018-04-30T14:07:48.357Z,3416.00
2018-04-30T14:09:41.623Z,2956.00
2018-04-30T14:10:41.560Z,2740.00
2018-04-30T14:12:34.845Z,2460.00
2018-04-30T14:13:34.764Z,2672.00
2018-04-30T14:15:28.146Z,2872.00
2018-04-30T14:16:27.968Z,2588.00
2018-04-30T14:18:21.368Z,3064.00
2018-04-30T14:19:21.168Z,3800.00
2018-04-30T14:21:14.458Z,7328.00
2018-04-30T14:22:14.373Z,7752.00
2018-04-30T14:24:07.638Z,10124.00
2018-04-30T14:25:07.576Z,9012.00
2018-04-30T14:27:00.979Z,8596.00
2018-04-30T14:28:00.780Z,8392.00
2018-04-30T14:29:54.674Z,8220.00
2018-04-30T14:30:53.978Z,8312.00
2018-04-30T14:32:47.380Z,7472.00
2018-04-30T14:33:47.259Z,7080.00
2018-04-30T14:35:40.572Z,5900.00
2018-04-30T14:36:40.459Z,5208.00
2018-04-30T14:38:33.860Z,6160.00
2018-04-30T14:39:33.672Z,5968.00
2018-04-30T14:41:26.957Z,5812.00
2018-04-30T14:42:26.874Z,5800.00
2018-04-30T14:44:20.141Z,5492.00
2018-04-30T14:45:20.080Z,5328.00
2018-04-30T14:47:13.367Z,5376.00
2018-04-30T14:48:13.285Z,5156.00
2018-04-30T14:50:06.565Z,3868.00
2018-04-30T14:51:06.499Z,4736.00
2018-04-30T14:52:59.785Z,3836.00
2018-04-30T14:53:59.704Z,4404.00
2018-04-30T14:55:52.969Z,4784.00
2018-04-30T14:56:52.910Z,5212.00
2018-04-30T14:58:46.203Z,5176.00
2018-04-30T14:59:46.119Z,5380.00
2018-04-30T15:01:39.527Z,5156.00
2018-04-30T15:02:39.329Z,4904.00
2018-04-30T15:04:32.707Z,4256.00
2018-04-30T15:05:32.530Z,6812.00
2018-04-30T15:07:25.815Z,6852.00
2018-04-30T15:08:25.732Z,7664.00
2018-04-30T15:10:19.001Z,7896.00
2018-04-30T15:11:18.936Z,7444.00
2018-04-30T15:13:12.221Z,6724.00
2018-04-30T15:14:12.139Z,6324.00
2018-04-30T15:16:05.414Z,5620.00
2018-04-30T15:17:05.341Z,5320.00
2018-04-30T15:18:58.642Z,4904.00
2018-04-30T15:19:58.557Z,4840.00
2018-04-30T15:21:51.956Z,4712.00
2018-04-30T15:22:51.768Z,4652.00
2018-04-30T15:24:45.151Z,4596.00
2018-04-30T15:25:44.981Z,4556.00
2018-04-30T15:27:38.268Z,4448.00
2018-04-30T15:28:38.185Z,4396.00
2018-04-30T15:30:31.564Z,4440.00
2018-04-30T15:31:31.400Z,2268.00
2018-04-30T15:33:24.693Z,4612.00
2018-04-30T15:34:24.607Z,2504.00
2018-04-30T15:36:17.872Z,4624.00
2018-04-30T15:37:17.825Z,2404.00
2018-04-30T15:39:11.102Z,5048.00
2018-04-30T15:40:11.013Z,3120.00
2018-04-30T15:42:04.359Z,4756.00
2018-04-30T15:43:04.213Z,3812.00
2018-04-30T15:44:57.487Z,3172.00
2018-04-30T15:45:57.424Z,2872.00
2018-04-30T15:47:50.716Z,3668.00
2018-04-30T15:48:50.634Z,3972.00
2018-04-30T15:50:43.921Z,4200.00
2018-04-30T15:51:43.855Z,3404.00
2018-04-30T15:53:37.259Z,3672.00
2018-04-30T15:54:37.100Z,3404.00
2018-04-30T15:56:30.332Z,3228.00
2018-04-30T15:57:30.268Z,3316.00
2018-04-30T15:59:23.566Z,3816.00
2018-04-30T16:00:23.482Z,5152.00
2018-04-30T16:02:16.782Z,3748.00
2018-04-30T16:03:16.694Z,3540.00
2018-04-30T16:05:09.974Z,3300.00
2018-04-30T16:06:09.905Z,2808.00
2018-04-30T16:08:03.203Z,2552.00
2018-04-30T16:09:03.120Z,4112.00
2018-04-30T16:10:56.387Z,3772.00
2018-04-30T16:11:56.322Z,1900.00
2018-04-30T16:13:49.616Z,2000.00
2018-04-30T16:14:49.533Z,1960.00
2018-04-30T16:16:42.802Z,1700.00
2018-04-30T16:17:42.732Z,1656.00
2018-04-30T16:19:36.131Z,2104.00
2018-04-30T16:20:35.943Z,1628.00
2018-04-30T16:22:29.343Z,2236.00
2018-04-30T16:23:29.158Z,3176.00
2018-04-30T16:25:22.432Z,2644.00
2018-04-30T16:26:22.362Z,2612.00
2018-04-30T16:28:15.762Z,2168.00
2018-04-30T16:29:15.570Z,1680.00
2018-04-30T16:31:08.949Z,1568.00
2018-04-30T16:32:08.771Z,2620.00
2018-04-30T16:34:02.053Z,1660.00
2018-04-30T16:35:01.970Z,2384.00
2018-04-30T16:36:55.324Z,2452.00
2018-04-30T16:37:55.258Z,2008.00
2018-04-30T16:39:48.668Z,1520.00
2018-04-30T16:40:48.468Z,2272.00
2018-04-30T16:42:41.866Z,1408.00
2018-04-30T16:43:41.675Z,1428.00
2018-04-30T16:45:34.948Z,1440.00
2018-04-30T16:46:34.887Z,1392.00
2018-04-30T16:48:28.172Z,1708.00
2018-04-30T16:49:28.091Z,1432.00
2018-04-30T16:51:21.363Z,1468.00
2018-04-30T16:52:21.302Z,1428.00
2018-04-30T16:54:14.592Z,1552.00
2018-04-30T16:55:14.508Z,1744.00
2018-04-30T16:57:07.831Z,1564.00
2018-04-30T16:58:07.709Z,2568.00
2018-04-30T17:00:01.003Z,2636.00
2018-04-30T17:01:00.917Z,2688.00
2018-04-30T17:02:54.210Z,1824.00
2018-04-30T17:03:54.153Z,2292.00
2018-04-30T17:05:48.004Z,2500.00
2018-04-30T17:06:47.334Z,2220.00
2018-04-30T17:08:40.623Z,1336.00
2018-04-30T17:09:40.542Z,1316.00
2018-04-30T17:11:33.922Z,1376.00
2018-04-30T17:12:33.748Z,1384.00
2018-04-30T17:14:27.146Z,1324.00
2018-04-30T17:15:26.955Z,1300.00
2018-04-30T17:17:20.218Z,1384.00
2018-04-30T17:18:20.154Z,1380.00
2018-04-30T17:20:13.447Z,1312.00
2018-04-30T17:21:13.360Z,1268.00
2018-04-30T17:23:06.656Z,1412.00
2018-04-30T17:24:06.568Z,1428.00
2018-04-30T17:25:59.841Z,1392.00
2018-04-30T17:26:59.778Z,1360.00
2018-04-30T17:28:54.058Z,1324.00
2018-04-30T17:29:53.973Z,1304.00
2018-04-30T17:31:47.322Z,1236.00
2018-04-30T17:32:47.256Z,1216.00
2018-04-30T17:34:40.548Z,1152.00
2018-04-30T17:35:40.464Z,1160.00
2018-04-30T17:37:33.842Z,1140.00
2018-04-30T17:38:33.663Z,1140.00
2018-04-30T17:40:27.060Z,1156.00
2018-04-30T17:41:26.866Z,1152.00
2018-04-30T17:43:20.159Z,1116.00
2018-04-30T17:44:20.075Z,1092.00
2018-04-30T17:46:13.346Z,1040.00
2018-04-30T17:47:13.279Z,1004.00
2018-04-30T17:49:06.573Z,960.00
2018-04-30T17:50:06.486Z,952.00
2018-04-30T17:51:59.767Z,920.00
2018-04-30T17:52:59.700Z,904.00
2018-04-30T17:54:52.980Z,896.00